Time;durP1;ratioP1;P1;durP2;ratioP2;P2;SDS_P1;SDS_P2;PMS_P1;PMS_P2;Temp;Humidity;BMP_temperature;BMP_pressure;BME280_temperature;BME280_humidity;BME280_pressure;Samples;Min_cycle;Max_cycle;Signal;HPM_P1;HPM_P2
2021/11/01 00:02:00;;;;;;;39.40;18.57;;;8.90;97.30;;;;;;5033317;28;20936;-76
2021/11/01 00:04:26;;;;;;;37.07;18.00;;;8.80;97.30;;;;;;5033335;28;20462;-77
2021/11/01 00:06:51;;;;;;;41.60;19.60;;;8.80;97.30;;;;;;5033077;28;20994;-78
2021/11/01 00:09:17;;;;;;;39.07;18.00;;;8.80;97.30;;;;;;5032004;28;20176;-77
2021/11/01 00:11:43;;;;;;;41.67;17.77;;;8.70;97.30;;;;;;5032165;28;20179;-77
2021/11/01 00:14:08;;;;;;;42.60;17.70;;;8.60;97.30;;;;;;5031748;28;20176;-77
2021/11/01 00:16:34;;;;;;;44.30;19.27;;;8.50;97.30;;;;;;5032509;28;20201;-80
2021/11/01 00:19:00;;;;;;;44.73;18.40;;;8.40;97.30;;;;;;5031680;28;20176;-77
2021/11/01 00:21:26;;;;;;;46.70;19.90;;;8.40;97.30;;;;;;5031411;28;20176;-79
2021/11/01 00:23:52;;;;;;;45.80;19.00;;;8.50;97.30;;;;;;5032400;28;20800;-77
2021/11/01 00:26:17;;;;;;;40.00;18.30;;;8.50;97.30;;;;;;5032133;28;20283;-77
2021/11/01 00:28:44;;;;;;;40.87;17.63;;;8.50;97.30;;;;;;5030952;28;20519;-78
2021/11/01 00:31:11;;;;;;;41.47;19.20;;;8.60;97.30;;;;;;5031114;28;20227;-78
2021/11/01 00:33:37;;;;;;;37.90;17.97;;;8.70;97.30;;;;;;5030672;28;20471;-77
2021/11/01 00:36:04;;;;;;;40.57;18.17;;;8.80;97.30;;;;;;5031146;28;20442;-76
2021/11/01 00:38:29;;;;;;;45.50;19.47;;;8.80;97.30;;;;;;5030744;28;20422;-80
2021/11/01 00:40:55;;;;;;;48.67;19.40;;;8.80;97.30;;;;;;5032226;28;20427;-77
2021/11/01 00:43:21;;;;;;;46.00;19.03;;;8.90;97.30;;;;;;5030827;28;20207;-79
2021/11/01 00:45:47;;;;;;;42.60;17.27;;;8.90;97.30;;;;;;5030611;28;20438;-77
2021/11/01 00:48:13;;;;;;;44.03;18.73;;;9.00;97.30;;;;;;5052032;28;20782;-77
2021/11/01 00:50:39;;;;;;;42.27;17.63;;;8.90;97.30;;;;;;5052131;28;20672;-76
2021/11/01 00:53:06;;;;;;;40.33;18.30;;;8.90;97.30;;;;;;5052040;28;20491;-76
2021/11/01 00:55:36;;;;;;;40.50;18.93;;;8.90;97.30;;;;;;5050185;28;20434;-76
2021/11/01 00:58:02;;;;;;;43.00;17.30;;;8.90;97.30;;;;;;5050628;28;20425;-76
2021/11/01 01:00:29;;;;;;;39.53;18.33;;;8.90;97.30;;;;;;5050494;28;20834;-76
2021/11/01 01:02:55;;;;;;;47.00;18.30;;;8.90;97.30;;;;;;5049923;28;20458;-76
2021/11/01 01:05:21;;;;;;;44.73;18.00;;;9.00;97.30;;;;;;5050428;28;20437;-76
2021/11/01 01:07:47;;;;;;;39.57;18.37;;;9.00;97.30;;;;;;5050260;28;20430;-76
2021/11/01 01:10:12;;;;;;;44.23;18.90;;;9.00;97.30;;;;;;5050288;28;20275;-76
2021/11/01 01:12:42;;;;;;;44.03;18.03;;;9.10;97.30;;;;;;5050184;28;20229;-76
2021/11/01 01:15:13;;;;;;;42.47;18.40;;;9.10;97.30;;;;;;5051559;28;20250;-76
2021/11/01 01:17:42;;;;;;;40.57;17.63;;;9.10;97.30;;;;;;5050348;28;20939;-76
2021/11/01 01:20:09;;;;;;;42.60;19.07;;;9.10;97.30;;;;;;5051053;28;20411;-76
2021/11/01 01:22:36;;;;;;;45.73;18.53;;;9.00;97.30;;;;;;5051435;28;20417;-76
2021/11/01 01:25:04;;;;;;;47.43;18.60;;;9.00;97.30;;;;;;5049980;28;20500;-76
2021/11/01 01:27:31;;;;;;;36.60;18.23;;;9.00;97.30;;;;;;5050207;28;20497;-77
2021/11/01 01:29:58;;;;;;;44.53;17.60;;;9.00;97.30;;;;;;5051266;28;20462;-76
2021/11/01 01:32:23;;;;;;;37.30;18.20;;;9.00;97.30;;;;;;5049728;28;20470;-75
2021/11/01 01:34:49;;;;;;;44.10;18.67;;;8.90;97.30;;;;;;5049931;28;20533;-76
2021/11/01 01:37:15;;;;;;;43.10;17.47;;;8.90;97.30;;;;;;5049928;28;20203;-76
2021/11/01 01:39:41;;;;;;;41.17;17.03;;;8.90;97.30;;;;;;5050150;28;20859;-76
2021/11/01 01:42:07;;;;;;;40.40;17.53;;;8.80;97.30;;;;;;5051204;28;20405;-76
2021/11/01 01:44:33;;;;;;;38.30;17.77;;;8.80;97.30;;;;;;5049538;28;20212;-76
2021/11/01 01:46:59;;;;;;;38.90;17.83;;;8.80;97.30;;;;;;5050808;28;20590;-76
2021/11/01 01:49:24;;;;;;;41.10;17.87;;;8.70;97.30;;;;;;5051011;28;20493;-76
2021/11/01 01:51:50;;;;;;;43.20;17.90;;;8.50;97.30;;;;;;5049355;28;20206;-76
2021/11/01 01:54:16;;;;;;;40.93;17.10;;;8.40;97.30;;;;;;5049854;28;20544;-77
2021/11/01 01:56:41;;;;;;;44.80;19.43;;;8.30;97.30;;;;;;5050992;28;20641;-76
2021/11/01 01:59:15;;;;;;;44.20;19.67;;;8.20;97.30;;;;;;5049455;28;20602;-80
2021/11/01 02:01:41;;;;;;;52.53;21.40;;;8.20;97.30;;;;;;5049276;28;20182;-77
2021/11/01 02:04:07;;;;;;;43.47;19.07;;;8.20;97.30;;;;;;5050804;28;20457;-77
2021/11/01 02:06:48;;;;;;;39.17;18.20;;;8.30;97.30;;;;;;5066641;28;20175;-76
2021/11/01 02:09:36;;;;;;;44.87;18.53;;;8.40;97.30;;;;;;5050498;28;20446;-77
2021/11/01 02:12:17;;;;;;;37.57;17.27;;;8.40;97.30;;;;;;5054660;28;20402;-77
2021/11/01 02:14:58;;;;;;;45.03;18.87;;;8.40;97.30;;;;;;5053577;28;20426;-77
2021/11/01 02:17:28;;;;;;;45.13;18.03;;;8.40;97.30;;;;;;5054519;28;20493;-77
2021/11/01 02:19:58;;;;;;;40.80;17.90;;;8.30;97.30;;;;;;5054705;28;20405;-77
2021/11/01 02:22:55;;;;;;;53.60;19.27;;;8.30;97.30;;;;;;5054352;28;20407;-77
2021/11/01 02:25:40;;;;;;;42.50;18.17;;;8.30;97.30;;;;;;5054665;28;20516;-77
2021/11/01 02:28:09;;;;;;;43.17;19.10;;;8.30;97.30;;;;;;5053535;28;20795;-79
2021/11/01 02:30:38;;;;;;;44.43;17.90;;;8.30;97.30;;;;;;5054648;28;20729;-76
2021/11/01 02:33:05;;;;;;;42.80;19.10;;;8.30;97.30;;;;;;5054596;28;20454;-77
2021/11/01 02:35:31;;;;;;;42.57;18.17;;;8.30;97.30;;;;;;5053126;28;20434;-78
2021/11/01 02:37:58;;;;;;;37.50;19.00;;;8.30;97.30;;;;;;5051886;28;20418;-78
2021/11/01 02:40:29;;;;;;;49.40;18.17;;;8.30;97.30;;;;;;5052882;28;20415;-79
2021/11/01 02:42:55;;;;;;;38.77;18.00;;;8.20;97.30;;;;;;5054484;28;20414;-79
2021/11/01 02:45:22;;;;;;;38.10;16.77;;;8.20;97.30;;;;;;5036445;28;20936;-79
2021/11/01 02:47:48;;;;;;;48.73;17.20;;;8.20;97.30;;;;;;5069631;28;20472;-78
2021/11/01 02:50:17;;;;;;;48.03;19.00;;;8.10;97.30;;;;;;5054390;28;20410;-79
2021/11/01 02:52:44;;;;;;;50.80;19.30;;;8.00;97.30;;;;;;5053189;28;20257;-78
2021/11/01 02:55:11;;;;;;;46.40;18.90;;;8.00;97.30;;;;;;5053376;28;20457;-78
2021/11/01 02:57:38;;;;;;;41.87;16.67;;;7.90;97.30;;;;;;5054212;28;20835;-78
2021/11/01 03:00:06;;;;;;;40.90;18.07;;;7.90;97.30;;;;;;5053073;28;20421;-78
2021/11/01 03:02:32;;;;;;;46.73;18.73;;;7.90;97.30;;;;;;5069666;28;20501;-78
2021/11/01 03:04:58;;;;;;;44.40;17.60;;;7.90;97.30;;;;;;5052494;28;20581;-78
2021/11/01 03:07:24;;;;;;;37.80;16.90;;;7.90;97.30;;;;;;5054087;28;20441;-79
2021/11/01 03:09:52;;;;;;;46.50;18.37;;;7.80;97.30;;;;;;5052567;28;20501;-78
2021/11/01 03:12:18;;;;;;;43.23;17.90;;;7.80;97.30;;;;;;5053851;28;20406;-78
2021/11/01 03:14:51;;;;;;;39.47;17.67;;;7.80;97.30;;;;;;5052776;28;20430;-78
2021/11/01 03:17:20;;;;;;;40.83;18.63;;;7.80;97.30;;;;;;5052660;28;20445;-78
2021/11/01 03:19:51;;;;;;;40.23;17.67;;;7.80;97.30;;;;;;5054575;28;20988;-78
2021/11/01 03:22:18;;;;;;;44.90;19.47;;;7.80;97.30;;;;;;5054054;28;20418;-78
2021/11/01 03:24:49;;;;;;;49.53;18.80;;;7.90;97.30;;;;;;5054008;28;20466;-78
2021/11/01 03:27:19;;;;;;;45.07;18.60;;;8.00;97.30;;;;;;5055072;28;20414;-78
2021/11/01 03:29:46;;;;;;;47.37;19.77;;;8.10;97.30;;;;;;5053030;28;20915;-78
2021/11/01 03:32:13;;;;;;;46.40;19.03;;;8.20;97.30;;;;;;5052375;28;20454;-78
2021/11/01 03:34:41;;;;;;;44.40;19.97;;;8.40;97.30;;;;;;5069188;28;20462;-76
2021/11/01 03:37:11;;;;;;;44.27;18.60;;;8.60;97.30;;;;;;5052143;28;20423;-76
2021/11/01 03:39:39;;;;;;;41.20;17.33;;;8.70;97.30;;;;;;5052105;28;20774;-76
2021/11/01 03:42:08;;;;;;;45.33;18.53;;;8.80;97.30;;;;;;5068828;28;20442;-76
2021/11/01 03:44:37;;;;;;;42.73;16.60;;;8.80;97.30;;;;;;5052933;28;20481;-76
2021/11/01 03:47:05;;;;;;;50.70;19.47;;;8.80;97.30;;;;;;5051673;28;20410;-76
2021/11/01 03:49:35;;;;;;;42.97;18.17;;;8.80;97.30;;;;;;5051568;28;20791;-76
2021/11/01 03:52:14;;;;;;;47.63;18.30;;;8.90;97.30;;;;;;5052395;28;20418;-76
2021/11/01 03:54:40;;;;;;;40.20;19.37;;;8.90;97.30;;;;;;5053561;28;20446;-76
2021/11/01 03:57:08;;;;;;;39.93;18.00;;;8.90;97.30;;;;;;5053108;28;20425;-76
2021/11/01 03:59:35;;;;;;;43.90;18.40;;;8.90;97.30;;;;;;5051704;28;20434;-76
2021/11/01 04:02:01;;;;;;;48.37;19.07;;;8.90;97.30;;;;;;5051306;28;20985;-76
2021/11/01 04:04:27;;;;;;;45.77;19.93;;;8.90;97.30;;;;;;5052688;28;20493;-76
2021/11/01 04:06:53;;;;;;;47.00;19.63;;;9.00;97.30;;;;;;5052748;28;20419;-76
2021/11/01 04:09:19;;;;;;;45.77;18.87;;;9.00;97.30;;;;;;5068146;28;20418;-76
2021/11/01 04:11:49;;;;;;;41.17;18.00;;;9.10;97.30;;;;;;5051265;28;20190;-76
2021/11/01 04:14:24;;;;;;;43.77;19.40;;;9.10;97.30;;;;;;5052558;28;20192;-76
2021/11/01 04:16:58;;;;;;;44.90;18.67;;;9.20;97.30;;;;;;5052436;28;20414;-75
2021/11/01 04:21:55;;;;;;;36.70;16.60;;;9.20;97.30;;;;;;5053033;28;20498;-76
2021/11/01 04:24:22;;;;;;;50.37;18.37;;;9.30;97.30;;;;;;5051010;28;20474;-76
2021/11/01 04:26:49;;;;;;;43.10;17.90;;;9.40;97.30;;;;;;5050819;28;20423;-76
2021/11/01 04:29:16;;;;;;;40.43;17.10;;;9.50;97.30;;;;;;5052288;28;20414;-76
2021/11/01 04:31:46;;;;;;;39.20;17.80;;;9.60;97.30;;;;;;5050512;28;20462;-76
2021/11/01 04:34:21;;;;;;;39.63;17.80;;;9.70;97.30;;;;;;5051146;28;20446;-76
2021/11/01 04:36:50;;;;;;;41.77;17.27;;;9.80;97.30;;;;;;5051005;28;20927;-76
2021/11/01 04:39:43;;;;;;;36.80;17.37;;;9.90;97.30;;;;;;5052128;28;20488;-76
2021/11/01 04:53:16;;;;;;;43.10;18.70;;;10.00;97.30;;;;;;5051896;28;20441;-76
2021/11/01 04:55:45;;;;;;;40.73;16.90;;;10.00;97.30;;;;;;5050226;28;20434;-76
2021/11/01 04:58:11;;;;;;;41.37;17.70;;;10.10;97.30;;;;;;5050654;28;20419;-76
2021/11/01 05:00:37;;;;;;;39.00;17.30;;;10.10;97.30;;;;;;5052268;28;20411;-76
2021/11/01 05:03:30;;;;;;;44.53;18.60;;;10.10;97.30;;;;;;5050367;28;20418;-76
2021/11/01 05:05:56;;;;;;;37.07;16.23;;;10.20;97.30;;;;;;5051384;28;20438;-76
2021/11/01 05:08:26;;;;;;;42.60;18.43;;;10.30;97.30;;;;;;5050075;28;20410;-76
2021/11/01 05:10:57;;;;;;;44.90;19.07;;;10.40;97.30;;;;;;5050232;28;20172;-76
2021/11/01 05:13:28;;;;;;;42.20;17.37;;;10.40;97.30;;;;;;5050674;28;20864;-76
2021/11/01 05:19:20;;;;;;;43.97;17.57;;;10.60;97.30;;;;;;5051810;28;20440;-76
2021/11/01 05:29:23;;;;;;;34.40;16.00;;;10.90;97.30;;;;;;5051727;28;20436;-76
2021/11/01 05:31:57;;;;;;;37.03;16.40;;;11.00;97.30;;;;;;5050212;28;20501;-76
2021/11/01 05:34:22;;;;;;;37.97;17.33;;;11.10;97.30;;;;;;5049600;28;20525;-76
2021/11/01 05:36:48;;;;;;;38.67;16.00;;;11.20;97.30;;;;;;5049462;28;20521;-76
2021/11/01 05:39:14;;;;;;;43.80;17.80;;;11.20;97.30;;;;;;5049538;28;20212;-76
2021/11/01 05:41:40;;;;;;;39.60;16.60;;;11.20;97.30;;;;;;5049794;28;20827;-76
2021/11/01 05:44:08;;;;;;;40.47;18.40;;;11.30;97.30;;;;;;5047651;28;20553;-76
2021/11/01 05:46:35;;;;;;;38.17;16.90;;;11.30;97.30;;;;;;5048490;28;20414;-76
2021/11/01 05:49:03;;;;;;;45.17;18.00;;;11.40;97.30;;;;;;5048423;28;20428;-77
2021/11/01 05:51:30;;;;;;;39.63;18.67;;;11.40;97.30;;;;;;5049902;28;20943;-75
2021/11/01 05:53:59;;;;;;;37.93;17.23;;;11.40;97.30;;;;;;5048211;28;20425;-79
2021/11/01 06:02:08;;;;;;;41.57;18.60;;;11.50;97.30;;;;;;5051739;28;20497;-77
2021/11/01 06:04:46;;;;;;;37.53;17.23;;;11.50;97.30;;;;;;5050395;28;20203;-77
2021/11/01 06:13:26;;;;;;;39.73;17.70;;;11.60;97.30;;;;;;5051319;28;20442;-77
2021/11/01 06:15:09;;;;;;;35.30;15.40;;;11.60;97.30;;;;;;5050535;28;20444;-77
2021/11/01 06:17:37;;;;;;;40.30;17.70;;;11.60;97.30;;;;;;5050952;28;20456;-78
2021/11/01 06:20:04;;;;;;;34.33;16.67;;;11.60;97.30;;;;;;5049530;28;21057;-77
2021/11/01 06:22:30;;;;;;;35.97;17.23;;;11.60;97.30;;;;;;5049497;28;20410;-78
2021/11/01 06:24:59;;;;;;;37.47;17.43;;;11.70;97.30;;;;;;5049440;28;20979;-78
2021/11/01 06:27:25;;;;;;;39.27;17.40;;;11.70;97.30;;;;;;5050898;28;20584;-78
2021/11/01 06:29:59;;;;;;;42.60;16.80;;;11.70;97.30;;;;;;5049636;28;20426;-77
2021/11/01 06:32:41;;;;;;;37.13;18.40;;;11.70;97.30;;;;;;5050416;28;20256;-77
2021/11/01 06:43:25;;;;;;;38.70;17.07;;;11.70;97.30;;;;;;5030906;28;20454;-77
2021/11/01 06:54:17;;;;;;;34.73;15.20;;;11.70;97.30;;;;;;5030464;28;20407;-78
2021/11/01 07:15:57;;;;;;;40.10;16.67;;;11.90;97.30;;;;;;5054117;28;20429;-77
2021/11/01 07:18:32;;;;;;;35.80;16.27;;;12.00;97.30;;;;;;5052794;28;20418;-77
2021/11/01 08:28:35;;;;;;;20.03;8.73;;;12.90;97.30;;;;;;5052766;28;20774;-77
2021/11/01 08:42:12;;;;;;;14.57;7.67;;;13.00;97.30;;;;;;5050884;28;20418;-77
2021/11/01 09:03:38;;;;;;;18.70;8.07;;;13.00;97.30;;;;;;5051986;28;20488;-77
2021/11/01 09:06:51;;;;;;;14.67;6.40;;;13.00;97.30;;;;;;5051602;28;20442;-77
2021/11/01 09:20:08;;;;;;;4.77;2.50;;;13.10;97.30;;;;;;5051824;28;20935;-77
2021/11/01 09:27:33;;;;;;;4.27;1.83;;;13.20;97.30;;;;;;5051702;28;20417;-77
2021/11/01 09:30:21;;;;;;;4.70;1.93;;;13.20;97.10;;;;;;5050074;28;20446;-78
2021/11/01 09:35:48;;;;;;;2.73;1.77;;;13.20;97.10;;;;;;5051376;28;20456;-78
2021/11/01 09:38:29;;;;;;;4.80;2.63;;;13.20;97.20;;;;;;5049740;28;20415;-77
2021/11/01 09:43:21;;;;;;;6.83;1.90;;;13.30;97.30;;;;;;5050845;28;20458;-78
2021/11/01 09:45:47;;;;;;;3.03;2.10;;;13.30;97.30;;;;;;5050297;28;20446;-76
2021/11/01 09:48:13;;;;;;;4.13;2.10;;;13.40;97.30;;;;;;5049719;28;20253;-76
2021/11/01 09:50:38;;;;;;;3.77;1.87;;;13.40;97.30;;;;;;5049846;28;20410;-76
2021/11/01 09:53:26;;;;;;;2.23;1.47;;;13.40;97.30;;;;;;5049652;28;20421;-78
2021/11/01 10:01:25;;;;;;;3.77;1.70;;;13.00;97.30;;;;;;5051738;28;20747;-77
2021/11/01 10:03:52;;;;;;;5.00;2.00;;;12.90;97.30;;;;;;5050845;28;20450;-76
2021/11/01 10:06:22;;;;;;;2.50;1.53;;;12.90;97.30;;;;;;5050157;28;20195;-76
2021/11/01 10:08:52;;;;;;;4.07;2.10;;;12.70;97.30;;;;;;5051153;28;20406;-78
2021/11/01 10:11:23;;;;;;;5.30;2.37;;;12.70;97.30;;;;;;5049939;28;20938;-76
2021/11/01 10:13:52;;;;;;;5.40;2.07;;;12.70;97.30;;;;;;5049989;28;20422;-77
2021/11/01 10:19:30;;;;;;;8.30;2.33;;;12.60;97.30;;;;;;5042545;28;20459;-77
2021/11/01 10:21:59;;;;;;;5.27;2.07;;;12.60;97.30;;;;;;5049867;28;20418;-77
2021/11/01 10:24:28;;;;;;;7.60;2.80;;;12.60;97.30;;;;;;5049604;28;20600;-76
2021/11/01 10:26:57;;;;;;;6.13;2.40;;;12.70;97.30;;;;;;5049117;28;20433;-77
2021/11/01 10:29:23;;;;;;;3.80;2.43;;;12.70;97.30;;;;;;5049274;28;20418;-77
2021/11/01 10:31:48;;;;;;;5.00;1.93;;;12.80;97.30;;;;;;5050938;28;20411;-77
2021/11/01 10:34:15;;;;;;;7.10;2.37;;;12.80;97.30;;;;;;5050857;28;20772;-77
2021/11/01 10:36:43;;;;;;;5.93;2.73;;;12.90;97.30;;;;;;5033147;28;20215;-77
2021/11/01 10:39:27;;;;;;;5.63;2.20;;;12.90;97.30;;;;;;5033402;28;20426;-76
2021/11/01 10:48:00;;;;;;;6.03;3.20;;;12.90;97.30;;;;;;5054724;28;20416;-77
2021/11/01 11:12:35;;;;;;;8.53;3.93;;;12.60;97.30;;;;;;5034729;28;20390;-76
2021/11/01 11:15:13;;;;;;;11.70;5.70;;;12.60;97.30;;;;;;5033998;28;20435;-77
2021/11/01 11:26:06;;;;;;;15.90;6.40;;;12.60;97.30;;;;;;5034151;28;20462;-77
2021/11/01 11:28:44;;;;;;;18.57;6.87;;;12.70;97.30;;;;;;5032214;28;20411;-77
2021/11/01 11:31:38;;;;;;;19.07;6.87;;;12.70;97.30;;;;;;5032556;28;20419;-76
2021/11/01 11:50:32;;;;;;;25.87;11.10;;;12.70;97.30;;;;;;5053766;28;20870;-80
2021/11/01 11:53:14;;;;;;;28.00;11.60;;;12.60;97.30;;;;;;5052373;28;20931;-79
2021/11/01 11:55:41;;;;;;;23.67;10.57;;;12.70;97.30;;;;;;5052236;28;20500;-79
2021/11/01 11:58:11;;;;;;;24.70;10.67;;;12.60;97.30;;;;;;5052462;28;20410;-80
2021/11/01 12:00:38;;;;;;;19.13;9.20;;;12.60;97.30;;;;;;5051951;28;20406;-79
2021/11/01 12:03:13;;;;;;;19.87;8.77;;;12.60;97.30;;;;;;5052183;28;20674;-80
2021/11/01 12:05:45;;;;;;;23.50;10.07;;;12.50;97.30;;;;;;5052351;28;20441;-79
2021/11/01 12:08:21;;;;;;;22.40;10.10;;;12.50;97.30;;;;;;5052022;28;20403;-79
2021/11/01 12:18:46;;;;;;;13.83;6.93;;;12.40;97.30;;;;;;5053901;28;20429;-79
2021/11/01 12:21:11;;;;;;;10.60;6.00;;;12.40;97.30;;;;;;5052836;28;20760;-80
2021/11/01 12:23:39;;;;;;;13.83;6.50;;;12.30;97.30;;;;;;5052015;28;20450;-79
2021/11/01 12:26:13;;;;;;;15.87;6.47;;;12.40;97.30;;;;;;5053423;28;20243;-79
2021/11/01 12:28:40;;;;;;;8.10;5.53;;;12.40;97.30;;;;;;5051760;28;20419;-79
2021/11/01 12:31:13;;;;;;;11.17;4.80;;;12.50;97.30;;;;;;5052141;28;20414;-79
2021/11/01 12:33:43;;;;;;;12.07;6.00;;;12.40;97.30;;;;;;5051332;28;20469;-79
2021/11/01 12:36:10;;;;;;;9.93;3.80;;;12.30;97.30;;;;;;5068661;28;20468;-80
2021/11/01 12:38:58;;;;;;;11.60;5.10;;;12.40;97.30;;;;;;5052404;28;20501;-79
2021/11/01 12:57:17;;;;;;;6.63;3.00;;;12.40;97.30;;;;;;5011278;28;20479;-77
2021/11/01 12:59:46;;;;;;;5.17;3.03;;;12.40;97.30;;;;;;5050648;28;20414;-76
2021/11/01 13:02:32;;;;;;;6.03;3.30;;;12.40;97.30;;;;;;5067169;28;20419;-77
2021/11/01 13:05:01;;;;;;;5.83;3.10;;;12.30;97.30;;;;;;5047223;28;20463;-80
2021/11/01 13:10:05;;;;;;;2.97;2.30;;;12.30;97.30;;;;;;5032629;28;20408;-77
2021/11/01 13:12:47;;;;;;;8.10;3.10;;;12.30;97.30;;;;;;5030719;28;20414;-76
2021/11/01 13:18:12;;;;;;;6.07;2.90;;;12.20;97.30;;;;;;5032721;28;20472;-77
2021/11/01 13:20:51;;;;;;;6.23;2.83;;;12.20;97.30;;;;;;5030424;28;20441;-77
2021/11/01 13:23:17;;;;;;;6.53;3.33;;;12.20;97.30;;;;;;5030664;28;20518;-76
2021/11/01 13:36:38;;;;;;;5.10;2.70;;;12.10;97.30;;;;;;5032222;28;20418;-77
2021/11/01 13:39:06;;;;;;;8.60;2.90;;;12.10;97.30;;;;;;5030272;28;20415;-77
2021/11/01 13:41:32;;;;;;;7.33;2.80;;;12.00;97.30;;;;;;5037864;28;20853;-77
2021/11/01 13:44:19;;;;;;;5.10;2.40;;;12.00;97.30;;;;;;5050972;28;20458;-76
2021/11/01 13:46:47;;;;;;;3.43;2.30;;;12.00;97.30;;;;;;5050994;28;20444;-77
2021/11/01 13:49:14;;;;;;;2.20;1.80;;;12.00;97.30;;;;;;5050033;28;20983;-75
2021/11/01 13:51:43;;;;;;;3.97;2.20;;;12.00;97.30;;;;;;5050721;28;20463;-77
2021/11/01 13:59:20;;;;;;;5.80;2.63;;;11.90;97.30;;;;;;5053563;28;20182;-78
2021/11/01 14:12:58;;;;;;;4.57;2.63;;;11.80;97.30;;;;;;5054876;28;20405;-78
2021/11/01 14:18:08;;;;;;;5.00;2.50;;;11.80;97.30;;;;;;5055091;28;20428;-78
2021/11/01 14:20:54;;;;;;;8.37;3.30;;;11.80;97.30;;;;;;5066516;28;20421;-77
2021/11/01 14:29:11;;;;;;;3.90;2.60;;;11.80;97.30;;;;;;5055870;28;20389;-79
2021/11/01 14:54:45;;;;;;;4.53;2.47;;;11.70;97.30;;;;;;5055428;28;20398;-77
2021/11/01 14:57:03;;;;;;;7.60;3.20;;;11.50;97.30;;;;;;5055474;28;20505;-77
2021/11/01 15:02:15;;;;;;;4.73;2.97;;;11.50;97.30;;;;;;5055563;28;20409;-77
2021/11/01 15:07:40;;;;;;;6.90;3.60;;;11.50;97.30;;;;;;5055454;28;20425;-78
2021/11/01 15:16:12;;;;;;;5.00;3.00;;;11.40;97.30;;;;;;5055362;28;20500;-77
2021/11/01 15:21:00;;;;;;;6.07;3.20;;;11.40;97.30;;;;;;5055048;28;20452;-77
2021/11/01 15:23:36;;;;;;;9.67;3.73;;;11.40;97.30;;;;;;5053152;28;20472;-76
2021/11/01 15:34:30;;;;;;;4.03;2.50;;;11.30;97.30;;;;;;5053793;28;20422;-77
2021/11/01 16:20:04;;;;;;;6.20;2.33;;;11.20;97.30;;;;;;5053196;28;20418;-77
2021/11/01 16:22:30;;;;;;;4.60;1.73;;;11.20;97.30;;;;;;5051546;28;20456;-76
2021/11/01 16:24:57;;;;;;;2.43;2.07;;;11.20;97.30;;;;;;5051574;28;20465;-77
2021/11/01 16:27:24;;;;;;;4.17;2.27;;;11.20;97.30;;;;;;5051475;28;20418;-77
2021/11/01 16:29:59;;;;;;;3.43;1.70;;;11.20;97.30;;;;;;5052606;28;20402;-76
2021/11/01 16:32:48;;;;;;;2.37;1.87;;;11.20;97.30;;;;;;5051396;28;20462;-77
2021/11/01 16:35:19;;;;;;;4.53;2.80;;;11.20;97.30;;;;;;5052624;28;20813;-78
2021/11/01 16:37:50;;;;;;;6.50;2.97;;;11.20;97.30;;;;;;5053030;28;20406;-78
2021/11/01 16:40:16;;;;;;;8.03;3.83;;;11.10;97.30;;;;;;5051821;28;20418;-78
2021/11/01 16:42:45;;;;;;;6.77;4.40;;;11.10;97.30;;;;;;5052682;28;20414;-79
2021/11/01 16:45:23;;;;;;;7.83;4.40;;;11.10;97.30;;;;;;5051640;28;20215;-79
2021/11/01 16:47:48;;;;;;;10.80;4.80;;;11.10;97.30;;;;;;5051784;28;20837;-79
2021/11/01 16:50:16;;;;;;;6.90;4.27;;;11.10;97.30;;;;;;5052906;28;20410;-79
2021/11/01 16:52:44;;;;;;;7.10;4.10;;;11.00;97.30;;;;;;5051580;28;20544;-79
2021/11/01 16:55:22;;;;;;;7.63;3.30;;;11.00;97.30;;;;;;5053024;28;20833;-79
2021/11/01 16:57:57;;;;;;;15.57;4.30;;;11.00;97.30;;;;;;5051451;28;20429;-78
2021/11/01 17:05:51;;;;;;;7.43;3.17;;;11.00;97.30;;;;;;5051678;28;20523;-79
2021/11/01 17:24:20;;;;;;;3.63;2.40;;;10.80;97.30;;;;;;5051386;28;20458;-76
2021/11/01 17:27:13;;;;;;;6.70;3.57;;;10.80;97.30;;;;;;5050296;28;20414;-76
2021/11/01 18:41:19;;;;;;;9.60;4.80;;;10.60;97.30;;;;;;5051069;28;20805;-76
2021/11/01 18:51:35;;;;;;;6.57;3.90;;;10.50;97.30;;;;;;5052016;28;20432;-77
2021/11/01 18:54:12;;;;;;;12.43;4.40;;;10.50;97.30;;;;;;5053638;28;20455;-77
2021/11/01 18:56:39;;;;;;;9.30;4.03;;;10.50;97.30;;;;;;5052082;28;20433;-77
2021/11/01 18:59:07;;;;;;;10.10;4.70;;;10.50;97.30;;;;;;5053029;28;20409;-76
2021/11/01 19:01:36;;;;;;;7.80;3.73;;;10.50;97.30;;;;;;5051611;28;20417;-77
2021/11/01 19:04:07;;;;;;;6.33;4.37;;;10.50;97.30;;;;;;5051311;28;21006;-77
2021/11/01 19:09:44;;;;;;;9.60;4.17;;;10.40;97.30;;;;;;5040767;28;20828;-77
2021/11/01 19:13:10;;;;;;;12.80;4.80;;;10.40;97.30;;;;;;5048664;28;20476;-79
2021/11/01 20:05:07;;;;;;;10.97;5.73;;;10.10;97.30;;;;;;5052322;28;20473;-77
2021/11/01 20:13:01;;;;;;;11.00;5.27;;;10.10;97.30;;;;;;5053522;28;20498;-78
2021/11/01 21:27:31;;;;;;;9.53;4.27;;;9.80;97.30;;;;;;5038140;28;20497;-77
2021/11/01 21:29:57;;;;;;;8.07;4.00;;;9.80;97.30;;;;;;5050902;28;20449;-77
2021/11/01 21:32:24;;;;;;;17.27;4.50;;;9.80;97.30;;;;;;5051651;28;20219;-78
2021/11/01 21:34:59;;;;;;;12.53;4.50;;;9.80;97.30;;;;;;5051356;28;20187;-77
2021/11/01 21:37:25;;;;;;;10.80;3.77;;;9.90;97.30;;;;;;5050802;28;20414;-78
2021/11/01 21:39:52;;;;;;;6.83;4.00;;;9.90;97.30;;;;;;5050557;28;20422;-77
2021/11/01 21:42:18;;;;;;;9.03;4.77;;;9.90;97.30;;;;;;5050840;28;20924;-77
2021/11/01 21:44:44;;;;;;;9.10;4.37;;;9.90;97.30;;;;;;5052430;28;20465;-78
2021/11/01 21:47:09;;;;;;;8.03;3.90;;;9.90;97.30;;;;;;5051002;28;20187;-78
2021/11/01 21:49:35;;;;;;;6.07;3.87;;;9.90;97.30;;;;;;5049422;28;20558;-77
2021/11/01 21:52:01;;;;;;;6.07;3.00;;;9.90;97.30;;;;;;5050318;28;20180;-78
2021/11/01 21:54:49;;;;;;;8.40;4.07;;;9.90;97.30;;;;;;5050323;28;20625;-77
2021/11/01 21:57:21;;;;;;;4.77;3.23;;;9.90;97.30;;;;;;5051240;28;20613;-77
2021/11/01 22:21:08;;;;;;;9.97;3.57;;;9.70;97.30;;;;;;5051478;28;20414;-77
2021/11/01 22:23:42;;;;;;;9.13;4.10;;;9.70;97.30;;;;;;5051282;28;20476;-77
2021/11/01 22:45:00;;;;;;;7.60;4.03;;;9.50;97.30;;;;;;5055015;28;20841;-78
2021/11/01 22:58:12;;;;;;;6.63;3.20;;;9.50;97.30;;;;;;5053247;28;20505;-77
2021/11/01 23:00:47;;;;;;;5.20;3.50;;;9.50;97.30;;;;;;5070182;28;20422;-77
2021/11/01 23:33:23;;;;;;;5.00;3.20;;;9.50;97.30;;;;;;5053799;28;20458;-78
2021/11/01 23:35:49;;;;;;;6.50;3.40;;;9.50;97.30;;;;;;5052504;28;20484;-77
2021/11/01 23:38:16;;;;;;;7.10;3.60;;;9.50;97.30;;;;;;5053649;28;20402;-77
2021/11/01 23:40:42;;;;;;;7.30;3.20;;;9.50;97.30;;;;;;5052414;28;20430;-77
2021/11/01 23:43:12;;;;;;;11.37;3.40;;;9.50;97.30;;;;;;5053691;28;20448;-77
2021/11/01 23:45:39;;;;;;;10.70;4.23;;;9.40;97.30;;;;;;5052969;28;20492;-77
2021/11/01 23:48:05;;;;;;;4.67;3.07;;;9.40;97.30;;;;;;5052415;28;20552;-77
2021/11/01 23:50:33;;;;;;;7.13;3.40;;;9.40;97.30;;;;;;5054004;28;20872;-78
2021/11/01 23:53:12;;;;;;;5.80;3.50;;;9.40;97.30;;;;;;5051913;28;20715;-77
2021/11/01 23:55:39;;;;;;;6.50;2.90;;;9.40;97.30;;;;;;5053496;28;20851;-77
2021/11/01 23:58:05;;;;;;;5.50;3.23;;;9.40;97.30;;;;;;5051875;28;20780;-77
